sensor_id;sensor_type;location;lat;lon;timestamp;pressure;altitude;pressure_sealevel;temperature;humidity
4598;BME280;62772;48.646;8.906;2023-04-26T00:01:22;96279.94;;;5.01;100.00
4598;BME280;62772;48.646;8.906;2023-04-26T00:06:22;96271.97;;;5.11;100.00
4598;BME280;62772;48.646;8.906;2023-04-26T00:11:22;96273.16;;;5.29;100.00
4598;BME280;62772;48.646;8.906;2023-04-26T00:16:23;96268.47;;;5.55;100.00
4598;BME280;62772;48.646;8.906;2023-04-26T00:21:23;96275.53;;;5.31;100.00
4598;BME280;62772;48.646;8.906;2023-04-26T00:26:24;96277.56;;;5.39;100.00
4598;BME280;62772;48.646;8.906;2023-04-26T00:31:24;96279.78;;;5.61;100.00
4598;BME280;62772;48.646;8.906;2023-04-26T00:36:25;96275.69;;;5.74;100.00
4598;BME280;62772;48.646;8.906;2023-04-26T00:41:26;96277.00;;;5.76;100.00
4598;BME280;62772;48.646;8.906;2023-04-26T00:46:26;96267.03;;;5.63;100.00
4598;BME280;62772;48.646;8.906;2023-04-26T00:51:28;96279.88;;;5.16;100.00
4598;BME280;62772;48.646;8.906;2023-04-26T00:56:29;96289.41;;;5.17;100.00
4598;BME280;62772;48.646;8.906;2023-04-26T01:01:30;96288.22;;;5.34;100.00
4598;BME280;62772;48.646;8.906;2023-04-26T01:06:33;96280.56;;;5.61;100.00
4598;BME280;62772;48.646;8.906;2023-04-26T01:11:35;96279.09;;;5.79;100.00
4598;BME280;62772;48.646;8.906;2023-04-26T01:16:36;96277.84;;;5.72;100.00
4598;BME280;62772;48.646;8.906;2023-04-26T01:21:38;96278.78;;;5.57;100.00
4598;BME280;62772;48.646;8.906;2023-04-26T01:26:39;96283.97;;;5.33;100.00
4598;BME280;62772;48.646;8.906;2023-04-26T01:31:48;96281.59;;;5.31;100.00
4598;BME280;62772;48.646;8.906;2023-04-26T01:36:49;96273.81;;;5.45;100.00
4598;BME280;62772;48.646;8.906;2023-04-26T01:41:49;96270.34;;;5.50;100.00
4598;BME280;62772;48.646;8.906;2023-04-26T01:46:50;96272.50;;;5.48;100.00
4598;BME280;62772;48.646;8.906;2023-04-26T01:51:50;96278.28;;;5.15;100.00
4598;BME280;62772;48.646;8.906;2023-04-26T01:56:51;96267.53;;;5.36;100.00
4598;BME280;62772;48.646;8.906;2023-04-26T02:01:51;96264.88;;;5.41;100.00
4598;BME280;62772;48.646;8.906;2023-04-26T02:06:52;96260.06;;;5.43;100.00
4598;BME280;62772;48.646;8.906;2023-04-26T02:11:52;96263.34;;;5.64;100.00
4598;BME280;62772;48.646;8.906;2023-04-26T02:16:53;96259.28;;;5.72;100.00
4598;BME280;62772;48.646;8.906;2023-04-26T02:21:55;96276.00;;;4.48;100.00
4598;BME280;62772;48.646;8.906;2023-04-26T02:26:56;96284.91;;;4.03;100.00
4598;BME280;62772;48.646;8.906;2023-04-26T02:32:02;96273.84;;;3.75;100.00
4598;BME280;62772;48.646;8.906;2023-04-26T02:37:04;96281.75;;;3.85;100.00
4598;BME280;62772;48.646;8.906;2023-04-26T02:42:11;96281.75;;;3.75;100.00
4598;BME280;62772;48.646;8.906;2023-04-26T02:47:11;96280.31;;;4.29;100.00
4598;BME280;62772;48.646;8.906;2023-04-26T02:52:12;96276.41;;;4.00;100.00
4598;BME280;62772;48.646;8.906;2023-04-26T02:57:12;96277.53;;;3.63;100.00
4598;BME280;62772;48.646;8.906;2023-04-26T03:02:13;96278.50;;;4.14;100.00
4598;BME280;62772;48.646;8.906;2023-04-26T03:07:13;96269.03;;;3.97;100.00
4598;BME280;62772;48.646;8.906;2023-04-26T03:12:14;96264.97;;;4.31;100.00
4598;BME280;62772;48.646;8.906;2023-04-26T03:17:14;96273.56;;;4.62;100.00
4598;BME280;62772;48.646;8.906;2023-04-26T03:22:16;96273.53;;;4.72;100.00
4598;BME280;62772;48.646;8.906;2023-04-26T03:27:18;96267.97;;;4.69;100.00
4598;BME280;62772;48.646;8.906;2023-04-26T03:32:18;96263.22;;;4.00;100.00
4598;BME280;62772;48.646;8.906;2023-04-26T03:37:18;96255.75;;;4.23;100.00
4598;BME280;62772;48.646;8.906;2023-04-26T03:42:26;96260.34;;;3.92;100.00
4598;BME280;62772;48.646;8.906;2023-04-26T03:47:31;96263.59;;;4.39;100.00
4598;BME280;62772;48.646;8.906;2023-04-26T03:52:32;96260.59;;;3.95;100.00
4598;BME280;62772;48.646;8.906;2023-04-26T03:57:32;96268.28;;;2.84;100.00
4598;BME280;62772;48.646;8.906;2023-04-26T04:02:34;96280.44;;;2.16;100.00
4598;BME280;62772;48.646;8.906;2023-04-26T04:07:35;96275.84;;;1.91;100.00
4598;BME280;62772;48.646;8.906;2023-04-26T04:12:36;96276.59;;;1.87;100.00
4598;BME280;62772;48.646;8.906;2023-04-26T04:17:37;96277.66;;;1.91;100.00
4598;BME280;62772;48.646;8.906;2023-04-26T04:22:37;96271.56;;;1.80;100.00
4598;BME280;62772;48.646;8.906;2023-04-26T04:27:39;96268.59;;;1.71;100.00
4598;BME280;62772;48.646;8.906;2023-04-26T04:32:42;96275.97;;;1.69;100.00
4598;BME280;62772;48.646;8.906;2023-04-26T04:37:44;96286.66;;;1.57;100.00
4598;BME280;62772;48.646;8.906;2023-04-26T04:42:46;96285.88;;;1.57;100.00
4598;BME280;62772;48.646;8.906;2023-04-26T04:47:48;96283.25;;;1.57;100.00
4598;BME280;62772;48.646;8.906;2023-04-26T04:52:48;96286.66;;;1.57;100.00
4598;BME280;62772;48.646;8.906;2023-04-26T04:57:49;96293.03;;;1.67;100.00
4598;BME280;62772;48.646;8.906;2023-04-26T05:02:50;96294.94;;;1.76;100.00
4598;BME280;62772;48.646;8.906;2023-04-26T05:07:50;96299.78;;;2.43;100.00
4598;BME280;62772;48.646;8.906;2023-04-26T05:12:51;96295.94;;;2.08;100.00
4598;BME280;62772;48.646;8.906;2023-04-26T05:17:51;96310.63;;;1.98;100.00
4598;BME280;62772;48.646;8.906;2023-04-26T05:22:55;96316.13;;;1.92;100.00
4598;BME280;62772;48.646;8.906;2023-04-26T05:27:56;96321.41;;;1.97;100.00
4598;BME280;62772;48.646;8.906;2023-04-26T05:33:06;96319.59;;;2.50;100.00
4598;BME280;62772;48.646;8.906;2023-04-26T05:38:27;96323.94;;;2.24;100.00
4598;BME280;62772;48.646;8.906;2023-04-26T05:43:28;96329.03;;;2.41;100.00
4598;BME280;62772;48.646;8.906;2023-04-26T05:48:29;96333.53;;;2.41;100.00
4598;BME280;62772;48.646;8.906;2023-04-26T05:53:29;96328.78;;;2.48;100.00
4598;BME280;62772;48.646;8.906;2023-04-26T05:58:30;96332.34;;;2.79;100.00
4598;BME280;62772;48.646;8.906;2023-04-26T06:03:33;96328.50;;;3.28;100.00
4598;BME280;62772;48.646;8.906;2023-04-26T06:08:34;96337.50;;;3.68;100.00
4598;BME280;62772;48.646;8.906;2023-04-26T06:13:34;96340.41;;;3.51;100.00
4598;BME280;62772;48.646;8.906;2023-04-26T06:18:35;96342.75;;;4.09;100.00
4598;BME280;62772;48.646;8.906;2023-04-26T06:23:35;96355.66;;;4.26;100.00
4598;BME280;62772;48.646;8.906;2023-04-26T06:28:36;96354.03;;;4.46;100.00
4598;BME280;62772;48.646;8.906;2023-04-26T06:33:36;96358.50;;;4.45;100.00
4598;BME280;62772;48.646;8.906;2023-04-26T06:38:37;96352.97;;;4.52;100.00
4598;BME280;62772;48.646;8.906;2023-04-26T06:43:37;96357.97;;;4.48;100.00
4598;BME280;62772;48.646;8.906;2023-04-26T06:48:53;96356.09;;;4.59;100.00
4598;BME280;62772;48.646;8.906;2023-04-26T06:53:55;96352.06;;;4.82;100.00
4598;BME280;62772;48.646;8.906;2023-04-26T06:59:02;96355.38;;;5.03;100.00
4598;BME280;62772;48.646;8.906;2023-04-26T07:04:04;96342.09;;;5.14;100.00
4598;BME280;62772;48.646;8.906;2023-04-26T07:09:08;96341.03;;;5.15;100.00
4598;BME280;62772;48.646;8.906;2023-04-26T07:14:09;96346.19;;;5.35;100.00
4598;BME280;62772;48.646;8.906;2023-04-26T07:19:11;96347.75;;;5.41;100.00
4598;BME280;62772;48.646;8.906;2023-04-26T07:24:11;96331.47;;;5.58;100.00
4598;BME280;62772;48.646;8.906;2023-04-26T07:29:12;96337.47;;;5.69;100.00
4598;BME280;62772;48.646;8.906;2023-04-26T07:34:13;96333.03;;;5.59;100.00
4598;BME280;62772;48.646;8.906;2023-04-26T07:39:14;96319.28;;;5.57;100.00
4598;BME280;62772;48.646;8.906;2023-04-26T07:44:14;96317.59;;;5.72;100.00
4598;BME280;62772;48.646;8.906;2023-04-26T07:49:15;96324.09;;;5.85;100.00
4598;BME280;62772;48.646;8.906;2023-04-26T07:54:15;96326.28;;;5.77;100.00
4598;BME280;62772;48.646;8.906;2023-04-26T07:59:15;96331.34;;;6.08;100.00
4598;BME280;62772;48.646;8.906;2023-04-26T08:04:17;96337.91;;;6.16;100.00
4598;BME280;62772;48.646;8.906;2023-04-26T08:09:18;96340.31;;;6.12;98.51
4598;BME280;62772;48.646;8.906;2023-04-26T08:14:18;96351.59;;;6.23;87.73
4598;BME280;62772;48.646;8.906;2023-04-26T08:19:19;96350.88;;;6.17;95.64
4598;BME280;62772;48.646;8.906;2023-04-26T08:24:19;96352.69;;;5.58;88.17
4598;BME280;62772;48.646;8.906;2023-04-26T08:29:19;96350.50;;;5.95;88.75
4598;BME280;62772;48.646;8.906;2023-04-26T08:34:20;96350.72;;;6.04;87.88
4598;BME280;62772;48.646;8.906;2023-04-26T08:39:20;96347.19;;;6.13;87.87
4598;BME280;62772;48.646;8.906;2023-04-26T08:44:23;96342.53;;;6.53;93.35
4598;BME280;62772;48.646;8.906;2023-04-26T08:49:39;96348.28;;;6.85;89.48
4598;BME280;62772;48.646;8.906;2023-04-26T08:54:43;96341.84;;;6.91;94.92
4598;BME280;62772;48.646;8.906;2023-04-26T08:59:45;96342.91;;;7.09;90.23
4598;BME280;62772;48.646;8.906;2023-04-26T09:04:47;96339.97;;;7.30;85.90
4598;BME280;62772;48.646;8.906;2023-04-26T09:09:49;96340.19;;;6.95;87.28
4598;BME280;62772;48.646;8.906;2023-04-26T09:14:50;96336.53;;;7.10;92.00
4598;BME280;62772;48.646;8.906;2023-04-26T09:19:50;96332.59;;;7.26;89.06
4598;BME280;62772;48.646;8.906;2023-04-26T09:24:51;96329.16;;;7.45;89.25
4598;BME280;62772;48.646;8.906;2023-04-26T09:30:11;96327.13;;;7.56;83.71
4598;BME280;62772;48.646;8.906;2023-04-26T09:40:26;96316.75;;;7.73;88.03
4598;BME280;62772;48.646;8.906;2023-04-26T09:45:28;96316.56;;;7.84;90.19
4598;BME280;62772;48.646;8.906;2023-04-26T09:50:29;96310.50;;;7.97;87.55
4598;BME280;62772;48.646;8.906;2023-04-26T09:55:31;96320.34;;;7.96;85.12
4598;BME280;62772;48.646;8.906;2023-04-26T10:00:31;96317.00;;;7.91;89.03
4598;BME280;62772;48.646;8.906;2023-04-26T10:05:32;96324.22;;;8.18;84.54
4598;BME280;62772;48.646;8.906;2023-04-26T10:10:33;96312.59;;;8.28;82.07
4598;BME280;62772;48.646;8.906;2023-04-26T10:15:34;96314.38;;;8.32;85.96
4598;BME280;62772;48.646;8.906;2023-04-26T10:20:42;96314.91;;;8.48;82.55
4598;BME280;62772;48.646;8.906;2023-04-26T10:25:43;96307.81;;;8.58;80.02
4598;BME280;62772;48.646;8.906;2023-04-26T10:30:57;96305.81;;;8.49;79.24
4598;BME280;62772;48.646;8.906;2023-04-26T10:41:26;96302.88;;;8.65;78.76
4598;BME280;62772;48.646;8.906;2023-04-26T10:46:34;96296.06;;;8.73;72.11
4598;BME280;62772;48.646;8.906;2023-04-26T10:51:35;96295.16;;;8.91;73.40
4598;BME280;62772;48.646;8.906;2023-04-26T11:01:40;96283.16;;;9.16;71.81
4598;BME280;62772;48.646;8.906;2023-04-26T11:06:50;96286.31;;;9.18;69.57
4598;BME280;62772;48.646;8.906;2023-04-26T11:11:51;96276.91;;;9.21;66.76
4598;BME280;62772;48.646;8.906;2023-04-26T11:16:55;96272.38;;;9.21;61.30
4598;BME280;62772;48.646;8.906;2023-04-26T11:21:55;96274.50;;;9.33;65.45
4598;BME280;62772;48.646;8.906;2023-04-26T11:26:56;96271.72;;;9.38;62.73
4598;BME280;62772;48.646;8.906;2023-04-26T11:31:57;96246.22;;;9.23;63.39
4598;BME280;62772;48.646;8.906;2023-04-26T11:36:58;96247.50;;;9.49;61.81
4598;BME280;62772;48.646;8.906;2023-04-26T11:42:09;96231.69;;;9.30;63.73
4598;BME280;62772;48.646;8.906;2023-04-26T11:47:10;96229.69;;;8.76;64.33
4598;BME280;62772;48.646;8.906;2023-04-26T11:52:11;96236.94;;;9.21;64.91
4598;BME280;62772;48.646;8.906;2023-04-26T11:57:16;96230.03;;;9.42;64.08
4598;BME280;62772;48.646;8.906;2023-04-26T12:02:17;96216.69;;;9.65;62.37
4598;BME280;62772;48.646;8.906;2023-04-26T12:07:19;96223.97;;;9.51;61.20
4598;BME280;62772;48.646;8.906;2023-04-26T12:12:22;96220.78;;;9.71;67.04
4598;BME280;62772;48.646;8.906;2023-04-26T12:17:22;96226.88;;;9.63;63.70
4598;BME280;62772;48.646;8.906;2023-04-26T12:22:23;96221.72;;;9.67;68.41
4598;BME280;62772;48.646;8.906;2023-04-26T12:27:23;96215.63;;;9.75;65.19
4598;BME280;62772;48.646;8.906;2023-04-26T12:32:24;96225.06;;;10.21;66.33
4598;BME280;62772;48.646;8.906;2023-04-26T12:37:24;96217.22;;;9.76;61.06
4598;BME280;62772;48.646;8.906;2023-04-26T12:42:25;96207.06;;;10.27;59.39
4598;BME280;62772;48.646;8.906;2023-04-26T12:47:25;96207.28;;;9.99;63.76
4598;BME280;62772;48.646;8.906;2023-04-26T12:52:26;96202.97;;;10.29;61.26
4598;BME280;62772;48.646;8.906;2023-04-26T12:57:27;96211.66;;;9.95;60.79
4598;BME280;62772;48.646;8.906;2023-04-26T13:02:27;96214.38;;;10.70;58.44
4598;BME280;62772;48.646;8.906;2023-04-26T13:07:28;96199.16;;;10.97;61.10
4598;BME280;62772;48.646;8.906;2023-04-26T13:12:28;96191.91;;;10.53;61.25
4598;BME280;62772;48.646;8.906;2023-04-26T13:17:29;96201.19;;;10.16;58.76
4598;BME280;62772;48.646;8.906;2023-04-26T13:22:30;96190.19;;;10.75;57.73
4598;BME280;62772;48.646;8.906;2023-04-26T13:27:31;96188.75;;;11.21;60.46
4598;BME280;62772;48.646;8.906;2023-04-26T13:32:31;96196.78;;;11.21;55.57
4598;BME280;62772;48.646;8.906;2023-04-26T13:37:32;96191.13;;;11.32;54.76
4598;BME280;62772;48.646;8.906;2023-04-26T13:42:32;96192.88;;;11.19;58.42
4598;BME280;62772;48.646;8.906;2023-04-26T13:47:33;96178.47;;;11.58;56.57
4598;BME280;62772;48.646;8.906;2023-04-26T13:52:33;96180.78;;;11.77;57.25
4598;BME280;62772;48.646;8.906;2023-04-26T13:57:34;96181.66;;;11.52;58.65
4598;BME280;62772;48.646;8.906;2023-04-26T14:02:35;96179.09;;;11.55;57.66
4598;BME280;62772;48.646;8.906;2023-04-26T14:07:35;96172.06;;;11.98;57.48
4598;BME280;62772;48.646;8.906;2023-04-26T14:12:36;96171.38;;;11.62;56.83
4598;BME280;62772;48.646;8.906;2023-04-26T14:17:36;96171.66;;;10.87;58.68
4598;BME280;62772;48.646;8.906;2023-04-26T14:22:36;96166.97;;;11.67;58.62
4598;BME280;62772;48.646;8.906;2023-04-26T14:27:37;96167.03;;;11.40;61.28
4598;BME280;62772;48.646;8.906;2023-04-26T14:32:38;96158.38;;;11.91;59.30
4598;BME280;62772;48.646;8.906;2023-04-26T14:37:39;96160.84;;;11.57;58.13
4598;BME280;62772;48.646;8.906;2023-04-26T14:42:39;96167.13;;;12.09;55.52
4598;BME280;62772;48.646;8.906;2023-04-26T14:47:44;96164.66;;;11.48;59.13
4598;BME280;62772;48.646;8.906;2023-04-26T14:52:45;96166.84;;;11.54;56.01
4598;BME280;62772;48.646;8.906;2023-04-26T14:57:48;96167.06;;;11.79;55.00
4598;BME280;62772;48.646;8.906;2023-04-26T15:02:49;96170.19;;;11.42;62.06
4598;BME280;62772;48.646;8.906;2023-04-26T15:07:50;96174.34;;;10.96;60.90
4598;BME280;62772;48.646;8.906;2023-04-26T15:12:51;96164.88;;;11.25;59.03
4598;BME280;62772;48.646;8.906;2023-04-26T15:17:52;96162.03;;;11.30;59.88
4598;BME280;62772;48.646;8.906;2023-04-26T15:22:52;96156.19;;;11.37;59.95
4598;BME280;62772;48.646;8.906;2023-04-26T15:27:52;96152.28;;;11.34;59.15
4598;BME280;62772;48.646;8.906;2023-04-26T15:32:53;96156.81;;;11.34;58.05
4598;BME280;62772;48.646;8.906;2023-04-26T15:37:53;96156.53;;;11.27;60.27
4598;BME280;62772;48.646;8.906;2023-04-26T15:42:54;96154.19;;;11.16;62.27
4598;BME280;62772;48.646;8.906;2023-04-26T15:47:54;96153.56;;;11.02;64.25
4598;BME280;62772;48.646;8.906;2023-04-26T15:52:56;96149.31;;;11.10;63.60
4598;BME280;62772;48.646;8.906;2023-04-26T15:57:57;96159.53;;;11.07;62.99
4598;BME280;62772;48.646;8.906;2023-04-26T16:02:57;96163.81;;;10.82;64.11
4598;BME280;62772;48.646;8.906;2023-04-26T16:07:58;96165.84;;;11.03;63.29
4598;BME280;62772;48.646;8.906;2023-04-26T16:12:58;96165.50;;;11.13;62.66
4598;BME280;62772;48.646;8.906;2023-04-26T16:17:59;96158.44;;;11.00;64.12
4598;BME280;62772;48.646;8.906;2023-04-26T16:22:59;96157.97;;;11.06;63.45
4598;BME280;62772;48.646;8.906;2023-04-26T16:28:00;96158.13;;;10.93;63.26
4598;BME280;62772;48.646;8.906;2023-04-26T16:33:01;96162.38;;;10.76;66.79
4598;BME280;62772;48.646;8.906;2023-04-26T16:38:03;96156.56;;;11.09;61.64
4598;BME280;62772;48.646;8.906;2023-04-26T16:43:04;96160.66;;;10.63;70.98
4598;BME280;62772;48.646;8.906;2023-04-26T16:48:06;96157.03;;;10.94;67.83
4598;BME280;62772;48.646;8.906;2023-04-26T16:53:06;96159.09;;;10.79;66.33
4598;BME280;62772;48.646;8.906;2023-04-26T16:58:07;96151.22;;;10.83;67.68
4598;BME280;62772;48.646;8.906;2023-04-26T17:03:07;96155.78;;;10.91;66.46
4598;BME280;62772;48.646;8.906;2023-04-26T17:08:08;96158.44;;;10.74;69.50
4598;BME280;62772;48.646;8.906;2023-04-26T17:13:08;96163.50;;;10.84;71.44
4598;BME280;62772;48.646;8.906;2023-04-26T17:18:11;96163.00;;;10.47;71.68
4598;BME280;62772;48.646;8.906;2023-04-26T17:23:12;96180.47;;;10.04;74.92
4598;BME280;62772;48.646;8.906;2023-04-26T17:28:12;96178.91;;;10.12;73.58
4598;BME280;62772;48.646;8.906;2023-04-26T17:33:13;96181.19;;;10.45;75.37
4598;BME280;62772;48.646;8.906;2023-04-26T17:38:14;96181.38;;;10.48;75.36
4598;BME280;62772;48.646;8.906;2023-04-26T17:43:15;96190.84;;;10.14;76.92
4598;BME280;62772;48.646;8.906;2023-04-26T17:48:15;96192.56;;;10.10;73.75
4598;BME280;62772;48.646;8.906;2023-04-26T17:53:16;96202.31;;;10.24;76.97
4598;BME280;62772;48.646;8.906;2023-04-26T17:58:16;96208.25;;;9.72;78.75
4598;BME280;62772;48.646;8.906;2023-04-26T18:03:17;96212.50;;;10.13;77.75
4598;BME280;62772;48.646;8.906;2023-04-26T18:08:19;96213.88;;;10.02;77.74
4598;BME280;62772;48.646;8.906;2023-04-26T18:13:19;96209.34;;;10.11;77.81
4598;BME280;62772;48.646;8.906;2023-04-26T18:18:20;96219.03;;;10.38;77.11
4598;BME280;62772;48.646;8.906;2023-04-26T18:23:20;96218.88;;;10.43;84.90
4598;BME280;62772;48.646;8.906;2023-04-26T18:28:21;96225.19;;;10.47;84.11
4598;BME280;62772;48.646;8.906;2023-04-26T18:33:22;96241.78;;;9.95;87.69
4598;BME280;62772;48.646;8.906;2023-04-26T18:38:22;96241.28;;;10.25;79.95
4598;BME280;62772;48.646;8.906;2023-04-26T18:43:23;96243.44;;;9.83;82.53
4598;BME280;62772;48.646;8.906;2023-04-26T18:48:23;96248.00;;;10.13;78.49
4598;BME280;62772;48.646;8.906;2023-04-26T18:53:24;96260.22;;;9.29;85.33
4598;BME280;62772;48.646;8.906;2023-04-26T18:58:24;96261.31;;;8.92;86.35
4598;BME280;62772;48.646;8.906;2023-04-26T19:03:24;96265.22;;;9.08;80.96
4598;BME280;62772;48.646;8.906;2023-04-26T19:08:25;96270.97;;;8.87;83.56
4598;BME280;62772;48.646;8.906;2023-04-26T19:13:26;96280.72;;;9.29;80.55
4598;BME280;62772;48.646;8.906;2023-04-26T19:18:26;96284.06;;;9.12;80.36
4598;BME280;62772;48.646;8.906;2023-04-26T19:23:27;96293.09;;;8.32;87.67
4598;BME280;62772;48.646;8.906;2023-04-26T19:28:27;96294.22;;;8.59;85.83
4598;BME280;62772;48.646;8.906;2023-04-26T19:33:27;96301.81;;;9.16;81.36
4598;BME280;62772;48.646;8.906;2023-04-26T19:38:28;96299.97;;;8.89;82.71
4598;BME280;62772;48.646;8.906;2023-04-26T19:43:28;96299.91;;;9.31;80.94
4598;BME280;62772;48.646;8.906;2023-04-26T19:48:29;96305.72;;;9.55;79.96
4598;BME280;62772;48.646;8.906;2023-04-26T19:53:29;96308.13;;;9.43;78.83
4598;BME280;62772;48.646;8.906;2023-04-26T19:58:30;96299.91;;;9.53;79.50
4598;BME280;62772;48.646;8.906;2023-04-26T20:03:31;96299.28;;;9.56;74.97
4598;BME280;62772;48.646;8.906;2023-04-26T20:08:32;96314.25;;;9.43;83.52
4598;BME280;62772;48.646;8.906;2023-04-26T20:13:32;96315.00;;;8.85;90.99
4598;BME280;62772;48.646;8.906;2023-04-26T20:18:33;96315.00;;;8.85;94.42
4598;BME280;62772;48.646;8.906;2023-04-26T20:23:33;96319.00;;;9.10;90.33
4598;BME280;62772;48.646;8.906;2023-04-26T20:28:34;96327.59;;;8.38;100.00
4598;BME280;62772;48.646;8.906;2023-04-26T20:33:34;96317.69;;;7.96;100.00
4598;BME280;62772;48.646;8.906;2023-04-26T20:38:35;96322.97;;;7.50;100.00
4598;BME280;62772;48.646;8.906;2023-04-26T20:43:36;96318.41;;;8.16;100.00
4598;BME280;62772;48.646;8.906;2023-04-26T20:48:36;96319.59;;;8.10;100.00
4598;BME280;62772;48.646;8.906;2023-04-26T20:53:37;96319.44;;;7.54;100.00
4598;BME280;62772;48.646;8.906;2023-04-26T20:58:37;96322.41;;;7.15;100.00
4598;BME280;62772;48.646;8.906;2023-04-26T21:03:38;96314.50;;;6.90;100.00
4598;BME280;62772;48.646;8.906;2023-04-26T21:08:39;96308.38;;;6.90;100.00
4598;BME280;62772;48.646;8.906;2023-04-26T21:13:42;96310.88;;;6.62;100.00
4598;BME280;62772;48.646;8.906;2023-04-26T21:18:42;96309.28;;;6.61;100.00
4598;BME280;62772;48.646;8.906;2023-04-26T21:23:43;96317.94;;;6.48;100.00
4598;BME280;62772;48.646;8.906;2023-04-26T21:28:43;96307.66;;;6.41;100.00
4598;BME280;62772;48.646;8.906;2023-04-26T21:33:43;96316.56;;;6.26;100.00
4598;BME280;62772;48.646;8.906;2023-04-26T21:38:44;96319.22;;;6.26;100.00
4598;BME280;62772;48.646;8.906;2023-04-26T21:43:44;96320.47;;;6.34;100.00
4598;BME280;62772;48.646;8.906;2023-04-26T21:48:45;96315.91;;;6.40;100.00
4598;BME280;62772;48.646;8.906;2023-04-26T21:53:45;96327.16;;;6.02;100.00
4598;BME280;62772;48.646;8.906;2023-04-26T21:58:46;96330.56;;;6.08;100.00
4598;BME280;62772;48.646;8.906;2023-04-26T22:03:46;96328.50;;;5.94;100.00
4598;BME280;62772;48.646;8.906;2023-04-26T22:08:47;96331.94;;;5.95;100.00
4598;BME280;62772;48.646;8.906;2023-04-26T22:13:47;96333.94;;;5.79;100.00
4598;BME280;62772;48.646;8.906;2023-04-26T22:18:47;96327.41;;;5.71;100.00
4598;BME280;62772;48.646;8.906;2023-04-26T22:23:48;96327.25;;;5.87;100.00
4598;BME280;62772;48.646;8.906;2023-04-26T22:28:48;96334.13;;;6.22;100.00
4598;BME280;62772;48.646;8.906;2023-04-26T22:33:49;96333.31;;;6.46;100.00
4598;BME280;62772;48.646;8.906;2023-04-26T22:38:49;96334.59;;;5.95;100.00
4598;BME280;62772;48.646;8.906;2023-04-26T22:43:50;96339.56;;;5.77;100.00
4598;BME280;62772;48.646;8.906;2023-04-26T22:48:50;96336.94;;;6.55;100.00
4598;BME280;62772;48.646;8.906;2023-04-26T22:53:51;96345.38;;;6.38;100.00
4598;BME280;62772;48.646;8.906;2023-04-26T22:58:54;96343.56;;;6.33;100.00
4598;BME280;62772;48.646;8.906;2023-04-26T23:03:54;96344.13;;;5.67;100.00
4598;BME280;62772;48.646;8.906;2023-04-26T23:08:55;96346.38;;;5.49;100.00
4598;BME280;62772;48.646;8.906;2023-04-26T23:13:55;96348.75;;;5.45;100.00
4598;BME280;62772;48.646;8.906;2023-04-26T23:18:56;96340.13;;;5.30;100.00
4598;BME280;62772;48.646;8.906;2023-04-26T23:23:57;96337.13;;;5.47;100.00
4598;BME280;62772;48.646;8.906;2023-04-26T23:28:57;96340.59;;;5.42;100.00
4598;BME280;62772;48.646;8.906;2023-04-26T23:33:57;96338.22;;;5.40;100.00
4598;BME280;62772;48.646;8.906;2023-04-26T23:38:58;96338.25;;;5.35;100.00
4598;BME280;62772;48.646;8.906;2023-04-26T23:43:58;96337.34;;;5.85;100.00
4598;BME280;62772;48.646;8.906;2023-04-26T23:48:59;96344.84;;;5.43;100.00
4598;BME280;62772;48.646;8.906;2023-04-26T23:53:59;96347.66;;;5.17;100.00
4598;BME280;62772;48.646;8.906;2023-04-26T23:59:00;96333.88;;;5.20;100.00
